sensor_id;sensor_type;location;lat;lon;timestamp;P1;durP1;ratioP1;P2;durP2;ratioP2
57663;SDS011;43493;53.098;6.064;2023-04-03T00:00:29;2.40;;;0.77;;
57663;SDS011;43493;53.098;6.064;2023-04-03T00:02:55;2.47;;;1.00;;
57663;SDS011;43493;53.098;6.064;2023-04-03T00:05:21;2.23;;;0.70;;
57663;SDS011;43493;53.098;6.064;2023-04-03T00:07:47;2.77;;;1.00;;
57663;SDS011;43493;53.098;6.064;2023-04-03T00:10:14;2.45;;;0.80;;
57663;SDS011;43493;53.098;6.064;2023-04-03T00:12:40;3.33;;;0.90;;
57663;SDS011;43493;53.098;6.064;2023-04-03T00:15:06;2.07;;;0.83;;
57663;SDS011;43493;53.098;6.064;2023-04-03T00:17:32;2.85;;;0.98;;
57663;SDS011;43493;53.098;6.064;2023-04-03T00:19:58;5.10;;;1.57;;
57663;SDS011;43493;53.098;6.064;2023-04-03T00:22:24;4.80;;;0.93;;
57663;SDS011;43493;53.098;6.064;2023-04-03T00:24:51;4.28;;;1.00;;
57663;SDS011;43493;53.098;6.064;2023-04-03T00:27:17;3.93;;;0.90;;
57663;SDS011;43493;53.098;6.064;2023-04-03T00:29:43;3.17;;;1.07;;
57663;SDS011;43493;53.098;6.064;2023-04-03T00:32:08;4.17;;;0.93;;
57663;SDS011;43493;53.098;6.064;2023-04-03T00:34:34;5.13;;;1.70;;
57663;SDS011;43493;53.098;6.064;2023-04-03T00:37:00;2.47;;;1.00;;
57663;SDS011;43493;53.098;6.064;2023-04-03T00:39:26;3.23;;;0.90;;
57663;SDS011;43493;53.098;6.064;2023-04-03T00:41:52;3.93;;;1.00;;
57663;SDS011;43493;53.098;6.064;2023-04-03T00:47:04;2.70;;;0.85;;
57663;SDS011;43493;53.098;6.064;2023-04-03T00:49:32;2.33;;;0.80;;
57663;SDS011;43493;53.098;6.064;2023-04-03T00:51:57;2.93;;;1.00;;
57663;SDS011;43493;53.098;6.064;2023-04-03T00:54:24;3.72;;;1.17;;
57663;SDS011;43493;53.098;6.064;2023-04-03T00:56:51;4.00;;;1.42;;
57663;SDS011;43493;53.098;6.064;2023-04-03T00:59:24;2.55;;;1.00;;
57663;SDS011;43493;53.098;6.064;2023-04-03T01:01:55;3.17;;;1.13;;
57663;SDS011;43493;53.098;6.064;2023-04-03T01:04:37;2.85;;;0.90;;
57663;SDS011;43493;53.098;6.064;2023-04-03T01:07:15;3.13;;;0.90;;
57663;SDS011;43493;53.098;6.064;2023-04-03T01:09:43;4.60;;;1.38;;
57663;SDS011;43493;53.098;6.064;2023-04-03T01:14:59;2.58;;;0.95;;
57663;SDS011;43493;53.098;6.064;2023-04-03T01:17:29;2.97;;;1.13;;
57663;SDS011;43493;53.098;6.064;2023-04-03T01:20:03;2.47;;;1.00;;
57663;SDS011;43493;53.098;6.064;2023-04-03T01:25:41;2.47;;;0.98;;
57663;SDS011;43493;53.098;6.064;2023-04-03T01:28:19;3.53;;;0.95;;
57663;SDS011;43493;53.098;6.064;2023-04-03T01:30:53;5.47;;;1.20;;
57663;SDS011;43493;53.098;6.064;2023-04-03T01:33:28;6.97;;;1.40;;
57663;SDS011;43493;53.098;6.064;2023-04-03T01:35:55;5.75;;;1.25;;
57663;SDS011;43493;53.098;6.064;2023-04-03T01:38:20;5.00;;;1.30;;
57663;SDS011;43493;53.098;6.064;2023-04-03T01:40:46;4.50;;;1.10;;
57663;SDS011;43493;53.098;6.064;2023-04-03T01:43:12;3.37;;;1.00;;
57663;SDS011;43493;53.098;6.064;2023-04-03T01:45:38;3.23;;;1.07;;
57663;SDS011;43493;53.098;6.064;2023-04-03T01:48:03;4.13;;;1.23;;
57663;SDS011;43493;53.098;6.064;2023-04-03T01:50:30;2.28;;;1.00;;
57663;SDS011;43493;53.098;6.064;2023-04-03T01:52:56;4.90;;;1.10;;
57663;SDS011;43493;53.098;6.064;2023-04-03T01:55:21;2.87;;;1.23;;
57663;SDS011;43493;53.098;6.064;2023-04-03T01:57:47;5.27;;;1.70;;
57663;SDS011;43493;53.098;6.064;2023-04-03T02:00:13;3.97;;;1.10;;
57663;SDS011;43493;53.098;6.064;2023-04-03T02:02:39;4.18;;;1.13;;
57663;SDS011;43493;53.098;6.064;2023-04-03T02:05:05;3.93;;;1.10;;
57663;SDS011;43493;53.098;6.064;2023-04-03T02:07:31;5.05;;;1.10;;
57663;SDS011;43493;53.098;6.064;2023-04-03T02:09:57;3.80;;;1.00;;
57663;SDS011;43493;53.098;6.064;2023-04-03T02:12:23;4.67;;;1.30;;
57663;SDS011;43493;53.098;6.064;2023-04-03T02:14:48;7.03;;;1.87;;
57663;SDS011;43493;53.098;6.064;2023-04-03T02:17:14;4.20;;;1.30;;
57663;SDS011;43493;53.098;6.064;2023-04-03T02:19:40;4.70;;;1.20;;
57663;SDS011;43493;53.098;6.064;2023-04-03T02:22:06;6.30;;;1.30;;
57663;SDS011;43493;53.098;6.064;2023-04-03T02:24:32;5.17;;;1.30;;
57663;SDS011;43493;53.098;6.064;2023-04-03T02:26:57;6.60;;;1.53;;
57663;SDS011;43493;53.098;6.064;2023-04-03T02:29:23;5.33;;;1.37;;
57663;SDS011;43493;53.098;6.064;2023-04-03T02:31:49;5.77;;;1.40;;
57663;SDS011;43493;53.098;6.064;2023-04-03T02:34:15;5.60;;;1.63;;
57663;SDS011;43493;53.098;6.064;2023-04-03T02:36:41;5.60;;;1.65;;
57663;SDS011;43493;53.098;6.064;2023-04-03T02:39:07;6.50;;;1.83;;
57663;SDS011;43493;53.098;6.064;2023-04-03T02:41:34;3.80;;;1.23;;
57663;SDS011;43493;53.098;6.064;2023-04-03T02:44:01;5.32;;;1.70;;
57663;SDS011;43493;53.098;6.064;2023-04-03T02:46:28;4.95;;;1.80;;
57663;SDS011;43493;53.098;6.064;2023-04-03T02:48:53;6.40;;;1.30;;
57663;SDS011;43493;53.098;6.064;2023-04-03T02:51:19;5.72;;;1.42;;
57663;SDS011;43493;53.098;6.064;2023-04-03T02:53:45;7.10;;;1.90;;
57663;SDS011;43493;53.098;6.064;2023-04-03T02:56:11;4.17;;;1.17;;
57663;SDS011;43493;53.098;6.064;2023-04-03T02:58:37;4.77;;;1.17;;
57663;SDS011;43493;53.098;6.064;2023-04-03T03:01:03;2.83;;;1.13;;
57663;SDS011;43493;53.098;6.064;2023-04-03T03:03:29;2.53;;;1.00;;
57663;SDS011;43493;53.098;6.064;2023-04-03T03:06:02;4.70;;;1.40;;
57663;SDS011;43493;53.098;6.064;2023-04-03T03:08:32;5.15;;;1.48;;
57663;SDS011;43493;53.098;6.064;2023-04-03T03:10:58;5.97;;;1.70;;
57663;SDS011;43493;53.098;6.064;2023-04-03T03:13:25;5.75;;;1.70;;
57663;SDS011;43493;53.098;6.064;2023-04-03T03:15:50;5.60;;;1.60;;
57663;SDS011;43493;53.098;6.064;2023-04-03T03:18:16;6.10;;;1.93;;
57663;SDS011;43493;53.098;6.064;2023-04-03T03:20:42;7.27;;;1.80;;
57663;SDS011;43493;53.098;6.064;2023-04-03T03:23:08;4.90;;;1.80;;
57663;SDS011;43493;53.098;6.064;2023-04-03T03:25:37;8.47;;;1.90;;
57663;SDS011;43493;53.098;6.064;2023-04-03T03:28:04;7.47;;;1.70;;
57663;SDS011;43493;53.098;6.064;2023-04-03T03:30:30;5.30;;;1.60;;
57663;SDS011;43493;53.098;6.064;2023-04-03T03:32:56;4.13;;;1.40;;
57663;SDS011;43493;53.098;6.064;2023-04-03T03:35:21;5.03;;;1.50;;
57663;SDS011;43493;53.098;6.064;2023-04-03T03:37:47;5.97;;;1.93;;
57663;SDS011;43493;53.098;6.064;2023-04-03T03:40:13;6.40;;;1.60;;
57663;SDS011;43493;53.098;6.064;2023-04-03T03:42:39;9.97;;;1.83;;
57663;SDS011;43493;53.098;6.064;2023-04-03T03:45:05;6.18;;;2.10;;
57663;SDS011;43493;53.098;6.064;2023-04-03T03:47:31;6.75;;;2.53;;
57663;SDS011;43493;53.098;6.064;2023-04-03T03:49:57;6.37;;;2.43;;
57663;SDS011;43493;53.098;6.064;2023-04-03T03:52:23;7.07;;;1.70;;
57663;SDS011;43493;53.098;6.064;2023-04-03T03:54:48;5.70;;;2.03;;
57663;SDS011;43493;53.098;6.064;2023-04-03T03:57:14;6.40;;;1.60;;
57663;SDS011;43493;53.098;6.064;2023-04-03T03:59:40;7.55;;;2.00;;
57663;SDS011;43493;53.098;6.064;2023-04-03T04:02:07;9.02;;;2.08;;
57663;SDS011;43493;53.098;6.064;2023-04-03T04:04:33;6.25;;;2.20;;
57663;SDS011;43493;53.098;6.064;2023-04-03T04:06:59;5.22;;;1.90;;
57663;SDS011;43493;53.098;6.064;2023-04-03T04:09:25;6.93;;;2.08;;
57663;SDS011;43493;53.098;6.064;2023-04-03T04:11:51;6.85;;;1.90;;
57663;SDS011;43493;53.098;6.064;2023-04-03T04:14:17;7.57;;;2.00;;
57663;SDS011;43493;53.098;6.064;2023-04-03T04:16:45;5.15;;;2.00;;
57663;SDS011;43493;53.098;6.064;2023-04-03T04:19:12;7.13;;;1.88;;
57663;SDS011;43493;53.098;6.064;2023-04-03T04:21:38;6.72;;;1.98;;
57663;SDS011;43493;53.098;6.064;2023-04-03T04:24:04;6.00;;;1.70;;
57663;SDS011;43493;53.098;6.064;2023-04-03T04:26:31;7.75;;;2.35;;
57663;SDS011;43493;53.098;6.064;2023-04-03T04:28:56;7.20;;;1.80;;
57663;SDS011;43493;53.098;6.064;2023-04-03T04:31:22;6.27;;;2.00;;
57663;SDS011;43493;53.098;6.064;2023-04-03T04:33:48;8.93;;;2.03;;
57663;SDS011;43493;53.098;6.064;2023-04-03T04:36:13;6.30;;;2.03;;
57663;SDS011;43493;53.098;6.064;2023-04-03T04:38:40;7.60;;;2.17;;
57663;SDS011;43493;53.098;6.064;2023-04-03T04:41:06;6.32;;;2.13;;
57663;SDS011;43493;53.098;6.064;2023-04-03T04:43:32;6.50;;;2.17;;
57663;SDS011;43493;53.098;6.064;2023-04-03T04:46:05;6.43;;;1.95;;
57663;SDS011;43493;53.098;6.064;2023-04-03T04:48:36;5.35;;;1.63;;
57663;SDS011;43493;53.098;6.064;2023-04-03T04:51:03;6.13;;;1.85;;
57663;SDS011;43493;53.098;6.064;2023-04-03T04:53:29;8.48;;;2.10;;
57663;SDS011;43493;53.098;6.064;2023-04-03T04:55:54;5.60;;;2.07;;
57663;SDS011;43493;53.098;6.064;2023-04-03T04:58:20;5.87;;;2.17;;
57663;SDS011;43493;53.098;6.064;2023-04-03T05:00:46;5.47;;;1.90;;
57663;SDS011;43493;53.098;6.064;2023-04-03T05:03:12;6.72;;;2.25;;
57663;SDS011;43493;53.098;6.064;2023-04-03T05:05:38;7.60;;;3.27;;
57663;SDS011;43493;53.098;6.064;2023-04-03T05:08:04;9.33;;;2.40;;
57663;SDS011;43493;53.098;6.064;2023-04-03T05:10:30;6.47;;;2.15;;
57663;SDS011;43493;53.098;6.064;2023-04-03T05:12:56;9.60;;;2.97;;
57663;SDS011;43493;53.098;6.064;2023-04-03T05:15:22;10.02;;;2.28;;
57663;SDS011;43493;53.098;6.064;2023-04-03T05:17:48;8.00;;;2.53;;
57663;SDS011;43493;53.098;6.064;2023-04-03T05:20:14;6.23;;;2.30;;
57663;SDS011;43493;53.098;6.064;2023-04-03T05:22:40;10.63;;;2.43;;
57663;SDS011;43493;53.098;6.064;2023-04-03T05:25:06;7.47;;;2.37;;
57663;SDS011;43493;53.098;6.064;2023-04-03T05:27:32;8.48;;;3.30;;
57663;SDS011;43493;53.098;6.064;2023-04-03T05:29:57;8.77;;;2.53;;
57663;SDS011;43493;53.098;6.064;2023-04-03T05:32:24;6.82;;;2.13;;
57663;SDS011;43493;53.098;6.064;2023-04-03T05:34:52;6.53;;;2.25;;
57663;SDS011;43493;53.098;6.064;2023-04-03T05:37:18;9.02;;;2.45;;
57663;SDS011;43493;53.098;6.064;2023-04-03T05:39:44;7.65;;;2.08;;
57663;SDS011;43493;53.098;6.064;2023-04-03T05:42:10;7.57;;;2.47;;
57663;SDS011;43493;53.098;6.064;2023-04-03T05:44:37;9.93;;;2.53;;
57663;SDS011;43493;53.098;6.064;2023-04-03T05:47:03;7.32;;;2.80;;
57663;SDS011;43493;53.098;6.064;2023-04-03T05:49:30;9.75;;;3.58;;
57663;SDS011;43493;53.098;6.064;2023-04-03T05:51:56;10.18;;;4.03;;
57663;SDS011;43493;53.098;6.064;2023-04-03T05:54:23;10.20;;;2.77;;
57663;SDS011;43493;53.098;6.064;2023-04-03T05:56:50;8.15;;;2.33;;
57663;SDS011;43493;53.098;6.064;2023-04-03T05:59:17;9.50;;;2.40;;
57663;SDS011;43493;53.098;6.064;2023-04-03T06:01:43;11.70;;;2.80;;
57663;SDS011;43493;53.098;6.064;2023-04-03T06:04:09;8.53;;;2.80;;
57663;SDS011;43493;53.098;6.064;2023-04-03T06:06:48;10.70;;;2.95;;
57663;SDS011;43493;53.098;6.064;2023-04-03T06:09:16;6.55;;;2.50;;
57663;SDS011;43493;53.098;6.064;2023-04-03T06:11:42;8.37;;;2.20;;
57663;SDS011;43493;53.098;6.064;2023-04-03T06:14:08;6.07;;;2.23;;
57663;SDS011;43493;53.098;6.064;2023-04-03T06:16:34;7.60;;;2.53;;
57663;SDS011;43493;53.098;6.064;2023-04-03T06:19:00;7.67;;;2.30;;
57663;SDS011;43493;53.098;6.064;2023-04-03T06:21:26;7.43;;;2.93;;
57663;SDS011;43493;53.098;6.064;2023-04-03T06:23:51;8.83;;;2.37;;
57663;SDS011;43493;53.098;6.064;2023-04-03T06:26:17;6.80;;;2.90;;
57663;SDS011;43493;53.098;6.064;2023-04-03T06:28:43;7.97;;;2.63;;
57663;SDS011;43493;53.098;6.064;2023-04-03T06:31:09;5.60;;;2.20;;
57663;SDS011;43493;53.098;6.064;2023-04-03T06:33:34;7.27;;;2.60;;
57663;SDS011;43493;53.098;6.064;2023-04-03T06:36:03;6.00;;;2.07;;
57663;SDS011;43493;53.098;6.064;2023-04-03T06:38:29;6.93;;;2.60;;
57663;SDS011;43493;53.098;6.064;2023-04-03T06:40:56;8.10;;;2.50;;
57663;SDS011;43493;53.098;6.064;2023-04-03T06:43:21;6.37;;;2.47;;
57663;SDS011;43493;53.098;6.064;2023-04-03T06:45:48;11.40;;;3.00;;
57663;SDS011;43493;53.098;6.064;2023-04-03T06:48:13;10.97;;;4.00;;
57663;SDS011;43493;53.098;6.064;2023-04-03T06:50:39;8.20;;;3.33;;
57663;SDS011;43493;53.098;6.064;2023-04-03T06:53:05;7.33;;;2.57;;
57663;SDS011;43493;53.098;6.064;2023-04-03T06:55:32;6.53;;;2.60;;
57663;SDS011;43493;53.098;6.064;2023-04-03T06:57:58;6.80;;;2.43;;
57663;SDS011;43493;53.098;6.064;2023-04-03T07:00:24;8.33;;;2.77;;
57663;SDS011;43493;53.098;6.064;2023-04-03T07:02:50;7.23;;;2.50;;
57663;SDS011;43493;53.098;6.064;2023-04-03T07:05:16;8.23;;;2.33;;
57663;SDS011;43493;53.098;6.064;2023-04-03T07:07:43;8.87;;;2.57;;
57663;SDS011;43493;53.098;6.064;2023-04-03T07:10:09;6.77;;;2.30;;
57663;SDS011;43493;53.098;6.064;2023-04-03T07:12:35;8.77;;;2.97;;
57663;SDS011;43493;53.098;6.064;2023-04-03T07:15:02;8.60;;;2.70;;
57663;SDS011;43493;53.098;6.064;2023-04-03T07:17:30;7.67;;;2.50;;
57663;SDS011;43493;53.098;6.064;2023-04-03T07:19:56;5.63;;;2.93;;
57663;SDS011;43493;53.098;6.064;2023-04-03T07:22:22;5.93;;;2.50;;
57663;SDS011;43493;53.098;6.064;2023-04-03T07:24:47;8.50;;;2.73;;
57663;SDS011;43493;53.098;6.064;2023-04-03T07:27:13;6.87;;;2.40;;
57663;SDS011;43493;53.098;6.064;2023-04-03T07:29:39;7.30;;;2.17;;
57663;SDS011;43493;53.098;6.064;2023-04-03T07:32:05;6.20;;;2.27;;
57663;SDS011;43493;53.098;6.064;2023-04-03T07:34:32;6.70;;;2.60;;
57663;SDS011;43493;53.098;6.064;2023-04-03T07:36:58;5.50;;;2.30;;
57663;SDS011;43493;53.098;6.064;2023-04-03T07:39:24;5.80;;;2.40;;
57663;SDS011;43493;53.098;6.064;2023-04-03T07:41:50;6.33;;;2.00;;
57663;SDS011;43493;53.098;6.064;2023-04-03T07:44:17;6.67;;;2.60;;
57663;SDS011;43493;53.098;6.064;2023-04-03T07:46:42;6.87;;;2.40;;
57663;SDS011;43493;53.098;6.064;2023-04-03T07:49:08;5.73;;;2.67;;
57663;SDS011;43493;53.098;6.064;2023-04-03T07:51:34;7.93;;;2.60;;
57663;SDS011;43493;53.098;6.064;2023-04-03T07:54:01;6.50;;;2.37;;
57663;SDS011;43493;53.098;6.064;2023-04-03T07:56:27;7.33;;;2.20;;
57663;SDS011;43493;53.098;6.064;2023-04-03T07:58:53;5.23;;;2.30;;
57663;SDS011;43493;53.098;6.064;2023-04-03T08:01:18;5.30;;;2.20;;
57663;SDS011;43493;53.098;6.064;2023-04-03T08:03:44;4.70;;;1.80;;
57663;SDS011;43493;53.098;6.064;2023-04-03T08:06:10;6.50;;;2.37;;
57663;SDS011;43493;53.098;6.064;2023-04-03T08:08:36;6.93;;;2.00;;
57663;SDS011;43493;53.098;6.064;2023-04-03T08:11:02;4.10;;;1.77;;
57663;SDS011;43493;53.098;6.064;2023-04-03T08:13:30;7.03;;;2.13;;
57663;SDS011;43493;53.098;6.064;2023-04-03T08:15:56;5.20;;;2.20;;
57663;SDS011;43493;53.098;6.064;2023-04-03T08:18:22;7.50;;;2.10;;
57663;SDS011;43493;53.098;6.064;2023-04-03T08:20:50;6.90;;;1.90;;
57663;SDS011;43493;53.098;6.064;2023-04-03T08:23:16;5.67;;;2.10;;
57663;SDS011;43493;53.098;6.064;2023-04-03T08:25:43;4.57;;;1.60;;
57663;SDS011;43493;53.098;6.064;2023-04-03T08:28:10;5.37;;;1.63;;
57663;SDS011;43493;53.098;6.064;2023-04-03T08:30:38;3.93;;;1.23;;
57663;SDS011;43493;53.098;6.064;2023-04-03T08:33:06;6.17;;;1.90;;
57663;SDS011;43493;53.098;6.064;2023-04-03T08:35:32;6.13;;;1.43;;
57663;SDS011;43493;53.098;6.064;2023-04-03T08:37:58;5.97;;;1.70;;
57663;SDS011;43493;53.098;6.064;2023-04-03T08:40:23;5.60;;;1.60;;
57663;SDS011;43493;53.098;6.064;2023-04-03T08:45:40;5.63;;;1.50;;
57663;SDS011;43493;53.098;6.064;2023-04-03T08:48:22;5.00;;;1.53;;
57663;SDS011;43493;53.098;6.064;2023-04-03T08:50:58;4.90;;;1.37;;
57663;SDS011;43493;53.098;6.064;2023-04-03T08:53:29;4.80;;;1.30;;
57663;SDS011;43493;53.098;6.064;2023-04-03T08:55:58;5.27;;;1.50;;
57663;SDS011;43493;53.098;6.064;2023-04-03T08:58:30;4.17;;;1.50;;
57663;SDS011;43493;53.098;6.064;2023-04-03T09:01:27;4.17;;;1.23;;
57663;SDS011;43493;53.098;6.064;2023-04-03T09:04:12;3.73;;;1.30;;
57663;SDS011;43493;53.098;6.064;2023-04-03T09:06:40;4.40;;;1.67;;
57663;SDS011;43493;53.098;6.064;2023-04-03T09:20:17;3.50;;;1.60;;
57663;SDS011;43493;53.098;6.064;2023-04-03T09:23:12;2.50;;;1.07;;
57663;SDS011;43493;53.098;6.064;2023-04-03T09:25:42;3.77;;;1.20;;
57663;SDS011;43493;53.098;6.064;2023-04-03T09:28:09;4.17;;;1.70;;
57663;SDS011;43493;53.098;6.064;2023-04-03T09:30:35;3.17;;;1.20;;
57663;SDS011;43493;53.098;6.064;2023-04-03T09:33:02;5.90;;;1.17;;
57663;SDS011;43493;53.098;6.064;2023-04-03T09:35:33;4.10;;;1.03;;
57663;SDS011;43493;53.098;6.064;2023-04-03T09:45:51;5.13;;;1.30;;
57663;SDS011;43493;53.098;6.064;2023-04-03T09:48:18;5.27;;;1.73;;
57663;SDS011;43493;53.098;6.064;2023-04-03T09:50:53;4.53;;;1.23;;
57663;SDS011;43493;53.098;6.064;2023-04-03T09:53:39;2.63;;;1.00;;
57663;SDS011;43493;53.098;6.064;2023-04-03T09:58:40;3.37;;;1.17;;
57663;SDS011;43493;53.098;6.064;2023-04-03T10:06:39;3.40;;;1.03;;
57663;SDS011;43493;53.098;6.064;2023-04-03T10:09:30;3.13;;;1.43;;
57663;SDS011;43493;53.098;6.064;2023-04-03T10:12:05;3.60;;;1.23;;
57663;SDS011;43493;53.098;6.064;2023-04-03T10:15:17;5.33;;;1.40;;
57663;SDS011;43493;53.098;6.064;2023-04-03T10:19:52;3.77;;;1.60;;
57663;SDS011;43493;53.098;6.064;2023-04-03T10:22:33;2.80;;;1.00;;
57663;SDS011;43493;53.098;6.064;2023-04-03T10:25:14;3.40;;;1.05;;
57663;SDS011;43493;53.098;6.064;2023-04-03T10:30:34;3.63;;;1.40;;
57663;SDS011;43493;53.098;6.064;2023-04-03T10:41:24;3.80;;;1.50;;
57663;SDS011;43493;53.098;6.064;2023-04-03T10:46:47;2.42;;;0.70;;
57663;SDS011;43493;53.098;6.064;2023-04-03T10:52:14;3.23;;;0.83;;
57663;SDS011;43493;53.098;6.064;2023-04-03T10:57:40;3.07;;;1.00;;
57663;SDS011;43493;53.098;6.064;2023-04-03T11:00:07;2.27;;;0.87;;
57663;SDS011;43493;53.098;6.064;2023-04-03T11:02:58;1.93;;;0.70;;
57663;SDS011;43493;53.098;6.064;2023-04-03T11:08:05;3.00;;;0.80;;
57663;SDS011;43493;53.098;6.064;2023-04-03T11:10:50;1.63;;;0.80;;
57663;SDS011;43493;53.098;6.064;2023-04-03T11:15:48;3.77;;;1.03;;
57663;SDS011;43493;53.098;6.064;2023-04-03T11:18:24;3.83;;;1.17;;
57663;SDS011;43493;53.098;6.064;2023-04-03T11:21:14;3.37;;;1.53;;
57663;SDS011;43493;53.098;6.064;2023-04-03T11:24:04;5.13;;;1.10;;
57663;SDS011;43493;53.098;6.064;2023-04-03T11:26:38;2.67;;;1.13;;
57663;SDS011;43493;53.098;6.064;2023-04-03T11:29:12;4.73;;;1.50;;
57663;SDS011;43493;53.098;6.064;2023-04-03T11:34:45;4.00;;;1.20;;
57663;SDS011;43493;53.098;6.064;2023-04-03T11:37:34;3.13;;;1.00;;
57663;SDS011;43493;53.098;6.064;2023-04-03T11:40:05;3.97;;;0.90;;
57663;SDS011;43493;53.098;6.064;2023-04-03T11:42:38;2.00;;;0.90;;
57663;SDS011;43493;53.098;6.064;2023-04-03T11:47:51;3.17;;;0.83;;
57663;SDS011;43493;53.098;6.064;2023-04-03T12:05:52;4.50;;;1.10;;
57663;SDS011;43493;53.098;6.064;2023-04-03T12:19:03;2.93;;;1.10;;
57663;SDS011;43493;53.098;6.064;2023-04-03T12:24:25;3.25;;;1.00;;
57663;SDS011;43493;53.098;6.064;2023-04-03T12:35:57;4.63;;;0.97;;
57663;SDS011;43493;53.098;6.064;2023-04-03T12:42:02;3.87;;;1.33;;
57663;SDS011;43493;53.098;6.064;2023-04-03T12:44:52;3.78;;;1.27;;
57663;SDS011;43493;53.098;6.064;2023-04-03T12:47:31;4.30;;;1.63;;
57663;SDS011;43493;53.098;6.064;2023-04-03T12:55:02;5.40;;;1.23;;
57663;SDS011;43493;53.098;6.064;2023-04-03T12:57:32;2.57;;;0.97;;
57663;SDS011;43493;53.098;6.064;2023-04-03T12:59:58;3.07;;;1.20;;
57663;SDS011;43493;53.098;6.064;2023-04-03T13:02:29;4.50;;;0.93;;
57663;SDS011;43493;53.098;6.064;2023-04-03T13:04:57;3.13;;;1.10;;
57663;SDS011;43493;53.098;6.064;2023-04-03T13:07:30;2.97;;;1.00;;
57663;SDS011;43493;53.098;6.064;2023-04-03T13:10:20;3.10;;;1.07;;
57663;SDS011;43493;53.098;6.064;2023-04-03T13:17:42;4.50;;;1.27;;
57663;SDS011;43493;53.098;6.064;2023-04-03T13:20:10;2.30;;;1.13;;
57663;SDS011;43493;53.098;6.064;2023-04-03T13:22:49;4.43;;;1.20;;
57663;SDS011;43493;53.098;6.064;2023-04-03T13:25:19;3.80;;;1.63;;
57663;SDS011;43493;53.098;6.064;2023-04-03T13:27:47;6.97;;;1.70;;
57663;SDS011;43493;53.098;6.064;2023-04-03T13:30:20;2.67;;;1.10;;
57663;SDS011;43493;53.098;6.064;2023-04-03T13:32:58;2.67;;;1.07;;
57663;SDS011;43493;53.098;6.064;2023-04-03T13:35:38;4.17;;;1.50;;
57663;SDS011;43493;53.098;6.064;2023-04-03T13:40:47;5.10;;;1.60;;
57663;SDS011;43493;53.098;6.064;2023-04-03T13:43:22;3.67;;;1.13;;
57663;SDS011;43493;53.098;6.064;2023-04-03T13:45:57;5.47;;;1.27;;
57663;SDS011;43493;53.098;6.064;2023-04-03T13:51:18;3.20;;;1.10;;
57663;SDS011;43493;53.098;6.064;2023-04-03T13:53:46;3.37;;;1.30;;
57663;SDS011;43493;53.098;6.064;2023-04-03T13:56:25;4.77;;;1.30;;
57663;SDS011;43493;53.098;6.064;2023-04-03T13:59:36;2.33;;;1.10;;
57663;SDS011;43493;53.098;6.064;2023-04-03T14:01:41;3.73;;;1.37;;
57663;SDS011;43493;53.098;6.064;2023-04-03T14:04:23;6.53;;;1.40;;
57663;SDS011;43493;53.098;6.064;2023-04-03T14:06:56;5.77;;;1.70;;
57663;SDS011;43493;53.098;6.064;2023-04-03T14:09:22;5.43;;;1.97;;
57663;SDS011;43493;53.098;6.064;2023-04-03T14:11:53;7.70;;;2.33;;
57663;SDS011;43493;53.098;6.064;2023-04-03T14:14:27;3.67;;;1.35;;
57663;SDS011;43493;53.098;6.064;2023-04-03T14:16:56;3.73;;;1.43;;
57663;SDS011;43493;53.098;6.064;2023-04-03T14:19:34;3.87;;;1.20;;
57663;SDS011;43493;53.098;6.064;2023-04-03T14:22:03;4.77;;;1.40;;
57663;SDS011;43493;53.098;6.064;2023-04-03T14:24:38;4.00;;;1.23;;
57663;SDS011;43493;53.098;6.064;2023-04-03T14:27:05;5.00;;;1.40;;
57663;SDS011;43493;53.098;6.064;2023-04-03T14:29:47;4.80;;;1.97;;
57663;SDS011;43493;53.098;6.064;2023-04-03T14:32:15;4.53;;;1.07;;
57663;SDS011;43493;53.098;6.064;2023-04-03T14:34:42;3.77;;;1.30;;
57663;SDS011;43493;53.098;6.064;2023-04-03T14:37:10;3.93;;;1.33;;
57663;SDS011;43493;53.098;6.064;2023-04-03T14:39:38;3.30;;;1.27;;
57663;SDS011;43493;53.098;6.064;2023-04-03T14:42:03;2.20;;;1.00;;
57663;SDS011;43493;53.098;6.064;2023-04-03T14:44:30;2.53;;;1.10;;
57663;SDS011;43493;53.098;6.064;2023-04-03T14:46:55;3.67;;;1.20;;
57663;SDS011;43493;53.098;6.064;2023-04-03T14:49:23;5.47;;;1.30;;
57663;SDS011;43493;53.098;6.064;2023-04-03T14:51:52;4.23;;;1.00;;
57663;SDS011;43493;53.098;6.064;2023-04-03T14:54:19;5.07;;;1.30;;
57663;SDS011;43493;53.098;6.064;2023-04-03T14:56:50;3.00;;;1.07;;
57663;SDS011;43493;53.098;6.064;2023-04-03T14:59:16;2.47;;;1.00;;
57663;SDS011;43493;53.098;6.064;2023-04-03T15:01:45;3.47;;;1.20;;
57663;SDS011;43493;53.098;6.064;2023-04-03T15:04:20;3.43;;;1.23;;
57663;SDS011;43493;53.098;6.064;2023-04-03T15:06:46;2.33;;;1.00;;
57663;SDS011;43493;53.098;6.064;2023-04-03T15:09:20;3.00;;;1.00;;
57663;SDS011;43493;53.098;6.064;2023-04-03T15:11:50;4.70;;;1.50;;
57663;SDS011;43493;53.098;6.064;2023-04-03T15:14:17;4.93;;;1.48;;
57663;SDS011;43493;53.098;6.064;2023-04-03T15:16:43;6.10;;;1.50;;
57663;SDS011;43493;53.098;6.064;2023-04-03T15:19:09;3.78;;;1.42;;
57663;SDS011;43493;53.098;6.064;2023-04-03T15:21:35;3.33;;;1.37;;
57663;SDS011;43493;53.098;6.064;2023-04-03T15:24:01;6.93;;;1.77;;
57663;SDS011;43493;53.098;6.064;2023-04-03T15:26:27;4.63;;;1.80;;
57663;SDS011;43493;53.098;6.064;2023-04-03T15:28:53;5.27;;;1.50;;
57663;SDS011;43493;53.098;6.064;2023-04-03T15:31:19;4.63;;;1.40;;
57663;SDS011;43493;53.098;6.064;2023-04-03T15:33:44;5.23;;;2.00;;
57663;SDS011;43493;53.098;6.064;2023-04-03T15:36:10;4.13;;;1.40;;
57663;SDS011;43493;53.098;6.064;2023-04-03T15:38:36;4.17;;;1.70;;
57663;SDS011;43493;53.098;6.064;2023-04-03T15:41:03;5.50;;;1.80;;
57663;SDS011;43493;53.098;6.064;2023-04-03T15:43:29;4.37;;;1.50;;
57663;SDS011;43493;53.098;6.064;2023-04-03T15:45:56;4.00;;;1.17;;
57663;SDS011;43493;53.098;6.064;2023-04-03T15:48:24;3.28;;;1.35;;
57663;SDS011;43493;53.098;6.064;2023-04-03T15:50:50;3.53;;;1.40;;
57663;SDS011;43493;53.098;6.064;2023-04-03T15:53:16;3.47;;;1.30;;
57663;SDS011;43493;53.098;6.064;2023-04-03T15:55:41;4.20;;;1.30;;
57663;SDS011;43493;53.098;6.064;2023-04-03T15:58:07;3.10;;;1.10;;
57663;SDS011;43493;53.098;6.064;2023-04-03T16:00:33;3.67;;;1.27;;
57663;SDS011;43493;53.098;6.064;2023-04-03T16:03:03;4.50;;;1.57;;
57663;SDS011;43493;53.098;6.064;2023-04-03T16:05:30;4.30;;;1.30;;
57663;SDS011;43493;53.098;6.064;2023-04-03T16:07:57;5.23;;;1.20;;
57663;SDS011;43493;53.098;6.064;2023-04-03T16:10:25;5.40;;;1.13;;
57663;SDS011;43493;53.098;6.064;2023-04-03T16:12:51;2.93;;;1.00;;
57663;SDS011;43493;53.098;6.064;2023-04-03T16:15:17;5.23;;;1.30;;
57663;SDS011;43493;53.098;6.064;2023-04-03T16:17:43;4.90;;;1.40;;
57663;SDS011;43493;53.098;6.064;2023-04-03T16:20:10;2.83;;;1.10;;
57663;SDS011;43493;53.098;6.064;2023-04-03T16:22:37;7.53;;;2.63;;
57663;SDS011;43493;53.098;6.064;2023-04-03T16:25:05;13.43;;;5.97;;
57663;SDS011;43493;53.098;6.064;2023-04-03T16:27:31;6.63;;;1.52;;
57663;SDS011;43493;53.098;6.064;2023-04-03T16:29:57;5.87;;;1.63;;
57663;SDS011;43493;53.098;6.064;2023-04-03T16:32:23;4.87;;;1.23;;
57663;SDS011;43493;53.098;6.064;2023-04-03T16:34:51;4.32;;;1.23;;
57663;SDS011;43493;53.098;6.064;2023-04-03T16:37:17;4.00;;;1.05;;
57663;SDS011;43493;53.098;6.064;2023-04-03T16:39:43;3.80;;;0.93;;
57663;SDS011;43493;53.098;6.064;2023-04-03T16:42:09;4.33;;;1.20;;
57663;SDS011;43493;53.098;6.064;2023-04-03T16:44:35;2.93;;;1.10;;
57663;SDS011;43493;53.098;6.064;2023-04-03T16:47:01;3.20;;;1.20;;
57663;SDS011;43493;53.098;6.064;2023-04-03T16:49:27;3.47;;;1.30;;
57663;SDS011;43493;53.098;6.064;2023-04-03T16:51:57;4.80;;;1.30;;
57663;SDS011;43493;53.098;6.064;2023-04-03T16:54:24;4.10;;;1.30;;
57663;SDS011;43493;53.098;6.064;2023-04-03T16:56:49;2.63;;;1.20;;
57663;SDS011;43493;53.098;6.064;2023-04-03T16:59:15;5.43;;;2.57;;
57663;SDS011;43493;53.098;6.064;2023-04-03T17:01:41;5.60;;;2.20;;
57663;SDS011;43493;53.098;6.064;2023-04-03T17:04:07;4.20;;;1.47;;